sensor_id;sensor_type;location;lat;lon;timestamp;P1;durP1;ratioP1;P2;durP2;ratioP2
18259;SDS011;9256;52.236;5.712;2023-12-07T00:01:58;26.57;;;10.70;;
18259;SDS011;9256;52.236;5.712;2023-12-07T00:04:25;25.63;;;10.93;;
18259;SDS011;9256;52.236;5.712;2023-12-07T00:06:53;27.20;;;10.10;;
18259;SDS011;9256;52.236;5.712;2023-12-07T00:09:20;25.07;;;10.87;;
18259;SDS011;9256;52.236;5.712;2023-12-07T00:11:47;23.43;;;10.50;;
18259;SDS011;9256;52.236;5.712;2023-12-07T00:14:14;28.03;;;11.00;;
18259;SDS011;9256;52.236;5.712;2023-12-07T00:16:41;24.90;;;10.07;;
18259;SDS011;9256;52.236;5.712;2023-12-07T00:19:07;25.03;;;10.13;;
18259;SDS011;9256;52.236;5.712;2023-12-07T00:21:34;25.73;;;10.60;;
18259;SDS011;9256;52.236;5.712;2023-12-07T00:24:03;25.43;;;10.57;;
18259;SDS011;9256;52.236;5.712;2023-12-07T00:26:30;25.30;;;10.20;;
18259;SDS011;9256;52.236;5.712;2023-12-07T00:28:57;24.83;;;10.63;;
18259;SDS011;9256;52.236;5.712;2023-12-07T00:31:24;23.57;;;10.37;;
18259;SDS011;9256;52.236;5.712;2023-12-07T00:33:51;21.43;;;10.40;;
18259;SDS011;9256;52.236;5.712;2023-12-07T00:36:18;24.63;;;10.13;;
18259;SDS011;9256;52.236;5.712;2023-12-07T00:38:45;23.17;;;9.83;;
18259;SDS011;9256;52.236;5.712;2023-12-07T00:41:13;27.33;;;10.17;;
18259;SDS011;9256;52.236;5.712;2023-12-07T00:43:40;25.17;;;10.73;;
18259;SDS011;9256;52.236;5.712;2023-12-07T00:46:07;27.87;;;11.20;;
18259;SDS011;9256;52.236;5.712;2023-12-07T00:48:34;25.67;;;10.80;;
18259;SDS011;9256;52.236;5.712;2023-12-07T00:51:00;26.20;;;10.93;;
18259;SDS011;9256;52.236;5.712;2023-12-07T00:53:27;23.73;;;9.97;;
18259;SDS011;9256;52.236;5.712;2023-12-07T00:55:54;29.07;;;10.90;;
18259;SDS011;9256;52.236;5.712;2023-12-07T00:58:22;26.20;;;11.03;;
18259;SDS011;9256;52.236;5.712;2023-12-07T01:00:49;27.27;;;11.10;;
18259;SDS011;9256;52.236;5.712;2023-12-07T01:03:17;24.97;;;10.20;;
18259;SDS011;9256;52.236;5.712;2023-12-07T01:05:44;25.17;;;10.40;;
18259;SDS011;9256;52.236;5.712;2023-12-07T01:08:11;26.37;;;10.37;;
18259;SDS011;9256;52.236;5.712;2023-12-07T01:10:38;25.37;;;10.57;;
18259;SDS011;9256;52.236;5.712;2023-12-07T01:13:05;23.27;;;9.77;;
18259;SDS011;9256;52.236;5.712;2023-12-07T01:15:33;26.67;;;10.17;;
18259;SDS011;9256;52.236;5.712;2023-12-07T01:18:00;21.87;;;9.83;;
18259;SDS011;9256;52.236;5.712;2023-12-07T01:20:28;24.80;;;10.63;;
18259;SDS011;9256;52.236;5.712;2023-12-07T01:22:55;29.03;;;10.20;;
18259;SDS011;9256;52.236;5.712;2023-12-07T01:25:22;23.53;;;9.67;;
18259;SDS011;9256;52.236;5.712;2023-12-07T01:27:49;29.23;;;10.53;;
18259;SDS011;9256;52.236;5.712;2023-12-07T01:30:16;26.63;;;10.30;;
18259;SDS011;9256;52.236;5.712;2023-12-07T01:32:44;28.00;;;10.40;;
18259;SDS011;9256;52.236;5.712;2023-12-07T01:35:11;26.03;;;10.60;;
18259;SDS011;9256;52.236;5.712;2023-12-07T01:37:38;25.07;;;10.33;;
18259;SDS011;9256;52.236;5.712;2023-12-07T01:40:06;22.10;;;9.93;;
18259;SDS011;9256;52.236;5.712;2023-12-07T01:42:35;24.23;;;9.93;;
18259;SDS011;9256;52.236;5.712;2023-12-07T01:45:03;25.93;;;9.90;;
18259;SDS011;9256;52.236;5.712;2023-12-07T01:47:31;24.70;;;10.23;;
18259;SDS011;9256;52.236;5.712;2023-12-07T01:50:01;26.43;;;9.73;;
18259;SDS011;9256;52.236;5.712;2023-12-07T01:52:31;24.33;;;9.90;;
18259;SDS011;9256;52.236;5.712;2023-12-07T01:55:00;26.33;;;10.37;;
18259;SDS011;9256;52.236;5.712;2023-12-07T01:57:27;27.63;;;9.97;;
18259;SDS011;9256;52.236;5.712;2023-12-07T01:59:55;26.53;;;10.13;;
18259;SDS011;9256;52.236;5.712;2023-12-07T02:02:22;26.37;;;10.57;;
18259;SDS011;9256;52.236;5.712;2023-12-07T02:04:49;26.50;;;9.97;;
18259;SDS011;9256;52.236;5.712;2023-12-07T02:07:18;24.40;;;10.20;;
18259;SDS011;9256;52.236;5.712;2023-12-07T02:09:45;28.33;;;10.57;;
18259;SDS011;9256;52.236;5.712;2023-12-07T02:12:13;26.57;;;10.93;;
18259;SDS011;9256;52.236;5.712;2023-12-07T02:14:39;29.45;;;11.82;;
18259;SDS011;9256;52.236;5.712;2023-12-07T02:17:08;26.80;;;10.87;;
18259;SDS011;9256;52.236;5.712;2023-12-07T02:19:47;27.70;;;10.23;;
18259;SDS011;9256;52.236;5.712;2023-12-07T02:22:29;24.37;;;10.13;;
18259;SDS011;9256;52.236;5.712;2023-12-07T02:25:04;25.37;;;10.67;;
18259;SDS011;9256;52.236;5.712;2023-12-07T02:27:37;26.70;;;10.20;;
18259;SDS011;9256;52.236;5.712;2023-12-07T02:30:06;27.30;;;11.10;;
18259;SDS011;9256;52.236;5.712;2023-12-07T02:32:33;23.97;;;10.33;;
18259;SDS011;9256;52.236;5.712;2023-12-07T02:35:01;29.70;;;10.97;;
18259;SDS011;9256;52.236;5.712;2023-12-07T02:37:28;24.80;;;10.30;;
18259;SDS011;9256;52.236;5.712;2023-12-07T02:40:02;22.33;;;9.63;;
18259;SDS011;9256;52.236;5.712;2023-12-07T02:42:32;25.50;;;10.50;;
18259;SDS011;9256;52.236;5.712;2023-12-07T02:45:01;28.53;;;10.93;;
18259;SDS011;9256;52.236;5.712;2023-12-07T02:47:29;25.20;;;9.80;;
18259;SDS011;9256;52.236;5.712;2023-12-07T02:49:56;24.40;;;10.30;;
18259;SDS011;9256;52.236;5.712;2023-12-07T02:52:23;28.77;;;10.83;;
18259;SDS011;9256;52.236;5.712;2023-12-07T02:54:50;26.23;;;10.20;;
18259;SDS011;9256;52.236;5.712;2023-12-07T02:57:17;27.20;;;10.33;;
18259;SDS011;9256;52.236;5.712;2023-12-07T02:59:44;27.87;;;10.63;;
18259;SDS011;9256;52.236;5.712;2023-12-07T03:02:12;26.50;;;10.50;;
18259;SDS011;9256;52.236;5.712;2023-12-07T03:04:39;24.83;;;10.47;;
18259;SDS011;9256;52.236;5.712;2023-12-07T03:07:06;27.10;;;10.57;;
18259;SDS011;9256;52.236;5.712;2023-12-07T03:09:33;25.60;;;10.53;;
18259;SDS011;9256;52.236;5.712;2023-12-07T03:12:00;25.73;;;10.53;;
18259;SDS011;9256;52.236;5.712;2023-12-07T03:14:27;26.43;;;10.20;;
18259;SDS011;9256;52.236;5.712;2023-12-07T03:16:54;25.03;;;10.20;;
18259;SDS011;9256;52.236;5.712;2023-12-07T03:19:22;28.87;;;11.03;;
18259;SDS011;9256;52.236;5.712;2023-12-07T03:21:49;28.37;;;10.70;;
18259;SDS011;9256;52.236;5.712;2023-12-07T03:24:16;23.83;;;10.20;;
18259;SDS011;9256;52.236;5.712;2023-12-07T03:26:43;26.83;;;10.23;;
18259;SDS011;9256;52.236;5.712;2023-12-07T03:29:09;22.97;;;9.80;;
18259;SDS011;9256;52.236;5.712;2023-12-07T03:31:36;26.30;;;10.37;;
18259;SDS011;9256;52.236;5.712;2023-12-07T03:34:03;26.40;;;10.70;;
18259;SDS011;9256;52.236;5.712;2023-12-07T03:36:32;26.53;;;9.87;;
18259;SDS011;9256;52.236;5.712;2023-12-07T03:38:59;26.73;;;10.43;;
18259;SDS011;9256;52.236;5.712;2023-12-07T03:41:26;27.27;;;10.63;;
18259;SDS011;9256;52.236;5.712;2023-12-07T03:43:52;25.17;;;10.40;;
18259;SDS011;9256;52.236;5.712;2023-12-07T03:46:19;31.38;;;15.07;;
18259;SDS011;9256;52.236;5.712;2023-12-07T03:48:49;29.03;;;12.00;;
18259;SDS011;9256;52.236;5.712;2023-12-07T03:51:16;27.30;;;11.40;;
18259;SDS011;9256;52.236;5.712;2023-12-07T03:53:44;29.70;;;11.10;;
18259;SDS011;9256;52.236;5.712;2023-12-07T03:56:11;26.70;;;10.87;;
18259;SDS011;9256;52.236;5.712;2023-12-07T03:58:48;31.37;;;11.93;;
18259;SDS011;9256;52.236;5.712;2023-12-07T04:01:15;28.80;;;11.50;;
18259;SDS011;9256;52.236;5.712;2023-12-07T04:03:41;31.83;;;12.37;;
18259;SDS011;9256;52.236;5.712;2023-12-07T04:06:08;29.63;;;10.77;;
18259;SDS011;9256;52.236;5.712;2023-12-07T04:08:35;31.13;;;11.47;;
18259;SDS011;9256;52.236;5.712;2023-12-07T04:11:04;30.60;;;11.63;;
18259;SDS011;9256;52.236;5.712;2023-12-07T04:13:31;30.37;;;11.57;;
18259;SDS011;9256;52.236;5.712;2023-12-07T04:15:58;27.63;;;11.17;;
18259;SDS011;9256;52.236;5.712;2023-12-07T04:18:25;34.23;;;11.73;;
18259;SDS011;9256;52.236;5.712;2023-12-07T04:20:51;31.50;;;12.03;;
18259;SDS011;9256;52.236;5.712;2023-12-07T04:23:18;34.20;;;12.13;;
18259;SDS011;9256;52.236;5.712;2023-12-07T04:25:45;28.63;;;11.40;;
18259;SDS011;9256;52.236;5.712;2023-12-07T04:28:14;27.67;;;10.83;;
18259;SDS011;9256;52.236;5.712;2023-12-07T04:30:41;32.70;;;12.07;;
18259;SDS011;9256;52.236;5.712;2023-12-07T04:33:08;31.83;;;11.40;;
18259;SDS011;9256;52.236;5.712;2023-12-07T04:35:34;27.10;;;10.80;;
18259;SDS011;9256;52.236;5.712;2023-12-07T04:38:01;29.17;;;11.13;;
18259;SDS011;9256;52.236;5.712;2023-12-07T04:40:28;28.37;;;10.57;;
18259;SDS011;9256;52.236;5.712;2023-12-07T04:42:55;32.67;;;11.13;;
18259;SDS011;9256;52.236;5.712;2023-12-07T04:45:24;29.37;;;11.27;;
18259;SDS011;9256;52.236;5.712;2023-12-07T04:47:51;30.43;;;10.77;;
18259;SDS011;9256;52.236;5.712;2023-12-07T04:50:18;28.33;;;10.43;;
18259;SDS011;9256;52.236;5.712;2023-12-07T04:52:45;35.13;;;15.77;;
18259;SDS011;9256;52.236;5.712;2023-12-07T04:55:11;30.30;;;12.40;;
18259;SDS011;9256;52.236;5.712;2023-12-07T04:57:40;30.00;;;11.97;;
18259;SDS011;9256;52.236;5.712;2023-12-07T05:00:07;27.07;;;10.73;;
18259;SDS011;9256;52.236;5.712;2023-12-07T05:02:37;27.80;;;11.20;;
18259;SDS011;9256;52.236;5.712;2023-12-07T05:05:05;29.53;;;11.57;;
18259;SDS011;9256;52.236;5.712;2023-12-07T05:07:32;30.33;;;10.97;;
18259;SDS011;9256;52.236;5.712;2023-12-07T05:09:59;29.63;;;11.57;;
18259;SDS011;9256;52.236;5.712;2023-12-07T05:12:26;33.17;;;14.80;;
18259;SDS011;9256;52.236;5.712;2023-12-07T05:14:53;30.43;;;11.93;;
18259;SDS011;9256;52.236;5.712;2023-12-07T05:17:19;28.27;;;11.60;;
18259;SDS011;9256;52.236;5.712;2023-12-07T05:19:48;30.87;;;11.23;;
18259;SDS011;9256;52.236;5.712;2023-12-07T05:22:15;28.63;;;10.97;;
18259;SDS011;9256;52.236;5.712;2023-12-07T05:24:41;27.17;;;10.80;;
18259;SDS011;9256;52.236;5.712;2023-12-07T05:27:08;26.70;;;10.90;;
18259;SDS011;9256;52.236;5.712;2023-12-07T05:29:35;34.23;;;12.00;;
18259;SDS011;9256;52.236;5.712;2023-12-07T05:32:02;28.40;;;11.27;;
18259;SDS011;9256;52.236;5.712;2023-12-07T05:34:30;28.10;;;10.50;;
18259;SDS011;9256;52.236;5.712;2023-12-07T05:36:58;27.73;;;11.13;;
18259;SDS011;9256;52.236;5.712;2023-12-07T05:39:25;33.73;;;12.43;;
18259;SDS011;9256;52.236;5.712;2023-12-07T05:41:52;32.67;;;12.10;;
18259;SDS011;9256;52.236;5.712;2023-12-07T05:44:19;41.92;;;17.73;;
18259;SDS011;9256;52.236;5.712;2023-12-07T05:46:47;37.37;;;14.20;;
18259;SDS011;9256;52.236;5.712;2023-12-07T05:49:14;33.87;;;12.60;;
18259;SDS011;9256;52.236;5.712;2023-12-07T05:51:41;31.87;;;12.63;;
18259;SDS011;9256;52.236;5.712;2023-12-07T05:54:09;31.70;;;12.23;;
18259;SDS011;9256;52.236;5.712;2023-12-07T05:56:36;31.70;;;12.23;;
18259;SDS011;9256;52.236;5.712;2023-12-07T05:59:03;42.70;;;12.23;;
18259;SDS011;9256;52.236;5.712;2023-12-07T06:01:31;31.43;;;12.00;;
18259;SDS011;9256;52.236;5.712;2023-12-07T06:03:58;29.73;;;11.87;;
18259;SDS011;9256;52.236;5.712;2023-12-07T06:06:24;29.73;;;11.83;;
18259;SDS011;9256;52.236;5.712;2023-12-07T06:08:51;26.80;;;11.73;;
18259;SDS011;9256;52.236;5.712;2023-12-07T06:11:20;27.53;;;11.43;;
18259;SDS011;9256;52.236;5.712;2023-12-07T06:13:47;25.63;;;10.90;;
18259;SDS011;9256;52.236;5.712;2023-12-07T06:16:14;31.73;;;13.07;;
18259;SDS011;9256;52.236;5.712;2023-12-07T06:18:42;33.97;;;11.90;;
18259;SDS011;9256;52.236;5.712;2023-12-07T06:21:09;30.20;;;12.17;;
18259;SDS011;9256;52.236;5.712;2023-12-07T06:23:37;31.80;;;13.17;;
18259;SDS011;9256;52.236;5.712;2023-12-07T06:26:04;42.10;;;13.60;;
18259;SDS011;9256;52.236;5.712;2023-12-07T06:28:33;32.50;;;13.07;;
18259;SDS011;9256;52.236;5.712;2023-12-07T06:31:04;37.37;;;13.07;;
18259;SDS011;9256;52.236;5.712;2023-12-07T06:33:32;36.20;;;13.13;;
18259;SDS011;9256;52.236;5.712;2023-12-07T06:35:59;42.00;;;13.17;;
18259;SDS011;9256;52.236;5.712;2023-12-07T06:38:28;31.17;;;11.47;;
18259;SDS011;9256;52.236;5.712;2023-12-07T06:40:55;30.90;;;12.20;;
18259;SDS011;9256;52.236;5.712;2023-12-07T06:43:22;34.13;;;12.47;;
18259;SDS011;9256;52.236;5.712;2023-12-07T06:45:50;33.70;;;12.23;;
18259;SDS011;9256;52.236;5.712;2023-12-07T06:48:18;33.30;;;12.80;;
18259;SDS011;9256;52.236;5.712;2023-12-07T06:50:45;32.03;;;12.57;;
18259;SDS011;9256;52.236;5.712;2023-12-07T06:53:12;28.47;;;12.23;;
18259;SDS011;9256;52.236;5.712;2023-12-07T06:55:41;32.60;;;12.70;;
18259;SDS011;9256;52.236;5.712;2023-12-07T06:58:08;37.07;;;12.50;;
18259;SDS011;9256;52.236;5.712;2023-12-07T07:00:36;34.63;;;12.60;;
18259;SDS011;9256;52.236;5.712;2023-12-07T07:03:04;32.60;;;13.00;;
18259;SDS011;9256;52.236;5.712;2023-12-07T07:05:31;50.10;;;16.20;;
18259;SDS011;9256;52.236;5.712;2023-12-07T07:07:58;36.87;;;13.63;;
18259;SDS011;9256;52.236;5.712;2023-12-07T07:10:25;30.17;;;12.43;;
18259;SDS011;9256;52.236;5.712;2023-12-07T07:12:52;44.33;;;13.37;;
18259;SDS011;9256;52.236;5.712;2023-12-07T07:15:19;31.43;;;12.40;;
18259;SDS011;9256;52.236;5.712;2023-12-07T07:17:46;66.03;;;14.30;;
18259;SDS011;9256;52.236;5.712;2023-12-07T07:20:14;43.07;;;13.07;;
18259;SDS011;9256;52.236;5.712;2023-12-07T07:22:42;36.57;;;13.70;;
18259;SDS011;9256;52.236;5.712;2023-12-07T07:25:10;40.07;;;14.40;;
18259;SDS011;9256;52.236;5.712;2023-12-07T07:27:37;41.97;;;13.90;;
18259;SDS011;9256;52.236;5.712;2023-12-07T07:30:04;37.57;;;13.77;;
18259;SDS011;9256;52.236;5.712;2023-12-07T07:32:33;41.00;;;13.33;;
18259;SDS011;9256;52.236;5.712;2023-12-07T07:35:01;35.13;;;13.57;;
18259;SDS011;9256;52.236;5.712;2023-12-07T07:37:29;47.10;;;13.67;;
18259;SDS011;9256;52.236;5.712;2023-12-07T07:39:56;37.10;;;13.23;;
18259;SDS011;9256;52.236;5.712;2023-12-07T07:42:24;43.10;;;18.00;;
18259;SDS011;9256;52.236;5.712;2023-12-07T07:44:51;36.50;;;14.27;;
18259;SDS011;9256;52.236;5.712;2023-12-07T07:47:18;44.33;;;13.70;;
18259;SDS011;9256;52.236;5.712;2023-12-07T07:49:45;40.23;;;13.27;;
18259;SDS011;9256;52.236;5.712;2023-12-07T07:52:12;37.33;;;12.90;;
18259;SDS011;9256;52.236;5.712;2023-12-07T07:54:40;52.40;;;18.48;;
18259;SDS011;9256;52.236;5.712;2023-12-07T07:57:08;46.93;;;15.00;;
18259;SDS011;9256;52.236;5.712;2023-12-07T07:59:35;38.90;;;14.17;;
18259;SDS011;9256;52.236;5.712;2023-12-07T08:02:02;35.53;;;13.57;;
18259;SDS011;9256;52.236;5.712;2023-12-07T08:04:31;40.27;;;13.80;;
18259;SDS011;9256;52.236;5.712;2023-12-07T08:06:58;47.13;;;14.60;;
18259;SDS011;9256;52.236;5.712;2023-12-07T08:09:25;45.80;;;15.00;;
18259;SDS011;9256;52.236;5.712;2023-12-07T08:11:53;40.73;;;13.47;;
18259;SDS011;9256;52.236;5.712;2023-12-07T08:14:20;36.20;;;13.70;;
18259;SDS011;9256;52.236;5.712;2023-12-07T08:16:47;43.20;;;13.77;;
18259;SDS011;9256;52.236;5.712;2023-12-07T08:19:14;66.47;;;15.10;;
18259;SDS011;9256;52.236;5.712;2023-12-07T08:21:41;39.97;;;14.27;;
18259;SDS011;9256;52.236;5.712;2023-12-07T08:24:07;42.17;;;13.97;;
18259;SDS011;9256;52.236;5.712;2023-12-07T08:26:34;42.27;;;13.70;;
18259;SDS011;9256;52.236;5.712;2023-12-07T08:29:03;57.03;;;15.07;;
18259;SDS011;9256;52.236;5.712;2023-12-07T08:31:31;55.27;;;14.43;;
18259;SDS011;9256;52.236;5.712;2023-12-07T08:33:58;47.13;;;14.83;;
18259;SDS011;9256;52.236;5.712;2023-12-07T08:36:25;43.00;;;15.37;;
18259;SDS011;9256;52.236;5.712;2023-12-07T08:38:53;39.70;;;14.80;;
18259;SDS011;9256;52.236;5.712;2023-12-07T08:41:20;48.40;;;15.43;;
18259;SDS011;9256;52.236;5.712;2023-12-07T08:43:47;49.43;;;16.33;;
18259;SDS011;9256;52.236;5.712;2023-12-07T08:46:15;53.93;;;15.50;;
18259;SDS011;9256;52.236;5.712;2023-12-07T08:48:42;51.93;;;15.87;;
18259;SDS011;9256;52.236;5.712;2023-12-07T08:51:09;53.43;;;16.67;;
18259;SDS011;9256;52.236;5.712;2023-12-07T08:53:36;42.83;;;14.77;;
18259;SDS011;9256;52.236;5.712;2023-12-07T08:56:04;43.57;;;15.73;;
18259;SDS011;9256;52.236;5.712;2023-12-07T08:58:31;64.33;;;15.50;;
18259;SDS011;9256;52.236;5.712;2023-12-07T09:00:58;48.10;;;16.33;;
18259;SDS011;9256;52.236;5.712;2023-12-07T09:03:26;56.93;;;14.77;;
18259;SDS011;9256;52.236;5.712;2023-12-07T09:05:56;47.77;;;14.80;;
18259;SDS011;9256;52.236;5.712;2023-12-07T09:08:26;41.53;;;15.10;;
18259;SDS011;9256;52.236;5.712;2023-12-07T09:10:53;50.10;;;16.10;;
18259;SDS011;9256;52.236;5.712;2023-12-07T09:13:20;42.20;;;15.17;;
18259;SDS011;9256;52.236;5.712;2023-12-07T09:15:47;42.50;;;15.07;;
18259;SDS011;9256;52.236;5.712;2023-12-07T09:18:14;62.10;;;22.27;;
18259;SDS011;9256;52.236;5.712;2023-12-07T09:20:42;45.20;;;16.70;;
18259;SDS011;9256;52.236;5.712;2023-12-07T09:23:11;53.27;;;15.57;;
18259;SDS011;9256;52.236;5.712;2023-12-07T09:25:40;46.57;;;15.37;;
18259;SDS011;9256;52.236;5.712;2023-12-07T09:28:07;57.80;;;15.37;;
18259;SDS011;9256;52.236;5.712;2023-12-07T09:30:34;41.67;;;16.03;;
18259;SDS011;9256;52.236;5.712;2023-12-07T09:33:01;42.17;;;15.03;;
18259;SDS011;9256;52.236;5.712;2023-12-07T09:35:29;50.13;;;15.53;;
18259;SDS011;9256;52.236;5.712;2023-12-07T09:38:00;40.70;;;14.97;;
18259;SDS011;9256;52.236;5.712;2023-12-07T09:40:30;64.13;;;16.40;;
18259;SDS011;9256;52.236;5.712;2023-12-07T09:42:57;56.07;;;15.97;;
18259;SDS011;9256;52.236;5.712;2023-12-07T09:45:24;56.97;;;16.63;;
18259;SDS011;9256;52.236;5.712;2023-12-07T09:47:51;46.53;;;15.97;;
18259;SDS011;9256;52.236;5.712;2023-12-07T09:50:19;47.73;;;17.20;;
18259;SDS011;9256;52.236;5.712;2023-12-07T09:52:47;51.37;;;16.57;;
18259;SDS011;9256;52.236;5.712;2023-12-07T09:55:17;53.20;;;17.23;;
18259;SDS011;9256;52.236;5.712;2023-12-07T09:57:45;43.10;;;16.40;;
18259;SDS011;9256;52.236;5.712;2023-12-07T10:00:12;52.43;;;16.57;;
18259;SDS011;9256;52.236;5.712;2023-12-07T10:02:40;56.97;;;17.90;;
18259;SDS011;9256;52.236;5.712;2023-12-07T10:05:09;53.30;;;17.20;;
18259;SDS011;9256;52.236;5.712;2023-12-07T10:07:39;66.23;;;17.40;;
18259;SDS011;9256;52.236;5.712;2023-12-07T10:10:07;62.03;;;16.53;;
18259;SDS011;9256;52.236;5.712;2023-12-07T10:12:43;45.50;;;16.00;;
18259;SDS011;9256;52.236;5.712;2023-12-07T10:15:12;52.78;;;16.50;;
18259;SDS011;9256;52.236;5.712;2023-12-07T10:17:46;48.47;;;16.27;;
18259;SDS011;9256;52.236;5.712;2023-12-07T10:20:15;51.27;;;16.63;;
18259;SDS011;9256;52.236;5.712;2023-12-07T10:22:42;53.53;;;17.03;;
18259;SDS011;9256;52.236;5.712;2023-12-07T10:25:11;72.80;;;18.20;;
18259;SDS011;9256;52.236;5.712;2023-12-07T10:27:40;64.67;;;18.43;;
18259;SDS011;9256;52.236;5.712;2023-12-07T10:30:09;52.00;;;17.23;;
18259;SDS011;9256;52.236;5.712;2023-12-07T10:32:37;62.23;;;20.37;;
18259;SDS011;9256;52.236;5.712;2023-12-07T10:35:06;54.07;;;18.57;;
18259;SDS011;9256;52.236;5.712;2023-12-07T10:37:34;73.40;;;28.80;;
18259;SDS011;9256;52.236;5.712;2023-12-07T10:40:01;62.60;;;21.60;;
18259;SDS011;9256;52.236;5.712;2023-12-07T10:42:32;81.17;;;28.00;;
18259;SDS011;9256;52.236;5.712;2023-12-07T10:45:04;65.30;;;20.60;;
18259;SDS011;9256;52.236;5.712;2023-12-07T10:47:33;54.07;;;17.73;;
18259;SDS011;9256;52.236;5.712;2023-12-07T10:50:02;51.07;;;15.70;;
18259;SDS011;9256;52.236;5.712;2023-12-07T10:52:36;47.27;;;15.90;;
18259;SDS011;9256;52.236;5.712;2023-12-07T10:55:06;45.00;;;15.63;;
18259;SDS011;9256;52.236;5.712;2023-12-07T10:57:36;55.27;;;18.63;;
18259;SDS011;9256;52.236;5.712;2023-12-07T11:00:07;52.83;;;16.57;;
18259;SDS011;9256;52.236;5.712;2023-12-07T11:02:34;44.73;;;14.30;;
18259;SDS011;9256;52.236;5.712;2023-12-07T11:05:02;47.17;;;15.13;;
18259;SDS011;9256;52.236;5.712;2023-12-07T11:07:46;46.00;;;14.37;;
18259;SDS011;9256;52.236;5.712;2023-12-07T11:10:20;51.73;;;15.10;;
18259;SDS011;9256;52.236;5.712;2023-12-07T11:12:54;49.27;;;14.73;;
18259;SDS011;9256;52.236;5.712;2023-12-07T11:15:27;52.37;;;14.70;;
18259;SDS011;9256;52.236;5.712;2023-12-07T11:17:55;53.53;;;19.67;;
18259;SDS011;9256;52.236;5.712;2023-12-07T11:20:31;54.37;;;15.53;;
18259;SDS011;9256;52.236;5.712;2023-12-07T11:22:59;47.50;;;12.30;;
18259;SDS011;9256;52.236;5.712;2023-12-07T11:25:26;48.20;;;13.03;;
18259;SDS011;9256;52.236;5.712;2023-12-07T11:27:59;44.67;;;13.10;;
18259;SDS011;9256;52.236;5.712;2023-12-07T11:30:28;38.87;;;12.63;;
18259;SDS011;9256;52.236;5.712;2023-12-07T11:32:58;39.60;;;12.67;;
18259;SDS011;9256;52.236;5.712;2023-12-07T11:35:25;39.33;;;11.97;;
18259;SDS011;9256;52.236;5.712;2023-12-07T11:38:05;43.03;;;14.27;;
18259;SDS011;9256;52.236;5.712;2023-12-07T11:40:36;48.47;;;18.80;;
18259;SDS011;9256;52.236;5.712;2023-12-07T11:43:06;45.40;;;13.37;;
18259;SDS011;9256;52.236;5.712;2023-12-07T11:48:19;38.33;;;11.50;;
18259;SDS011;9256;52.236;5.712;2023-12-07T11:50:54;43.57;;;11.47;;
18259;SDS011;9256;52.236;5.712;2023-12-07T11:53:22;42.20;;;10.90;;
18259;SDS011;9256;52.236;5.712;2023-12-07T11:55:50;38.23;;;10.20;;
18259;SDS011;9256;52.236;5.712;2023-12-07T11:58:19;34.83;;;10.00;;
18259;SDS011;9256;52.236;5.712;2023-12-07T12:00:47;37.20;;;10.70;;
18259;SDS011;9256;52.236;5.712;2023-12-07T12:03:16;42.63;;;11.00;;
18259;SDS011;9256;52.236;5.712;2023-12-07T12:05:42;47.70;;;12.63;;
18259;SDS011;9256;52.236;5.712;2023-12-07T12:08:10;38.93;;;11.30;;
18259;SDS011;9256;52.236;5.712;2023-12-07T12:10:37;65.37;;;17.07;;
18259;SDS011;9256;52.236;5.712;2023-12-07T12:13:07;42.13;;;12.93;;
18259;SDS011;9256;52.236;5.712;2023-12-07T12:15:34;47.13;;;12.50;;
18259;SDS011;9256;52.236;5.712;2023-12-07T12:18:03;42.27;;;10.50;;
18259;SDS011;9256;52.236;5.712;2023-12-07T12:20:36;55.60;;;13.93;;
18259;SDS011;9256;52.236;5.712;2023-12-07T12:23:03;66.80;;;18.90;;
18259;SDS011;9256;52.236;5.712;2023-12-07T12:25:30;52.23;;;13.23;;
18259;SDS011;9256;52.236;5.712;2023-12-07T12:27:58;52.73;;;13.80;;
18259;SDS011;9256;52.236;5.712;2023-12-07T12:30:28;46.30;;;13.10;;
18259;SDS011;9256;52.236;5.712;2023-12-07T12:32:56;49.10;;;13.63;;
18259;SDS011;9256;52.236;5.712;2023-12-07T12:35:26;71.37;;;21.10;;
18259;SDS011;9256;52.236;5.712;2023-12-07T12:37:55;54.90;;;15.50;;
18259;SDS011;9256;52.236;5.712;2023-12-07T12:40:22;56.80;;;13.93;;
18259;SDS011;9256;52.236;5.712;2023-12-07T12:42:50;54.63;;;13.60;;
18259;SDS011;9256;52.236;5.712;2023-12-07T12:45:18;47.30;;;11.97;;
18259;SDS011;9256;52.236;5.712;2023-12-07T12:47:46;56.27;;;14.37;;
18259;SDS011;9256;52.236;5.712;2023-12-07T12:53:04;80.40;;;23.70;;
18259;SDS011;9256;52.236;5.712;2023-12-07T12:55:32;59.30;;;14.97;;
18259;SDS011;9256;52.236;5.712;2023-12-07T12:58:01;55.20;;;13.10;;
18259;SDS011;9256;52.236;5.712;2023-12-07T13:00:29;64.73;;;18.27;;
18259;SDS011;9256;52.236;5.712;2023-12-07T13:02:56;54.47;;;14.87;;
18259;SDS011;9256;52.236;5.712;2023-12-07T13:05:26;52.67;;;13.53;;
18259;SDS011;9256;52.236;5.712;2023-12-07T13:07:52;51.17;;;13.17;;
18259;SDS011;9256;52.236;5.712;2023-12-07T13:10:21;52.87;;;13.47;;
18259;SDS011;9256;52.236;5.712;2023-12-07T13:12:48;51.73;;;12.53;;
18259;SDS011;9256;52.236;5.712;2023-12-07T13:15:14;55.10;;;13.50;;
18259;SDS011;9256;52.236;5.712;2023-12-07T13:17:42;55.43;;;13.73;;
18259;SDS011;9256;52.236;5.712;2023-12-07T13:20:09;68.90;;;17.77;;
18259;SDS011;9256;52.236;5.712;2023-12-07T13:22:38;55.10;;;14.67;;
18259;SDS011;9256;52.236;5.712;2023-12-07T13:25:06;56.13;;;14.20;;
18259;SDS011;9256;52.236;5.712;2023-12-07T13:27:34;54.23;;;14.03;;
18259;SDS011;9256;52.236;5.712;2023-12-07T13:30:02;55.77;;;14.47;;
18259;SDS011;9256;52.236;5.712;2023-12-07T13:32:31;64.43;;;14.93;;
18259;SDS011;9256;52.236;5.712;2023-12-07T13:34:58;63.40;;;14.87;;
18259;SDS011;9256;52.236;5.712;2023-12-07T13:37:25;71.60;;;19.15;;
18259;SDS011;9256;52.236;5.712;2023-12-07T13:39:53;68.17;;;15.90;;
18259;SDS011;9256;52.236;5.712;2023-12-07T13:42:23;67.90;;;15.23;;
18259;SDS011;9256;52.236;5.712;2023-12-07T13:44:53;66.20;;;15.63;;
18259;SDS011;9256;52.236;5.712;2023-12-07T13:47:22;53.93;;;14.17;;
18259;SDS011;9256;52.236;5.712;2023-12-07T13:49:53;56.77;;;14.50;;
18259;SDS011;9256;52.236;5.712;2023-12-07T13:52:20;58.83;;;13.77;;
18259;SDS011;9256;52.236;5.712;2023-12-07T13:54:47;54.13;;;14.33;;
18259;SDS011;9256;52.236;5.712;2023-12-07T13:57:14;60.80;;;14.67;;
18259;SDS011;9256;52.236;5.712;2023-12-07T13:59:41;61.27;;;14.13;;
18259;SDS011;9256;52.236;5.712;2023-12-07T14:02:10;62.47;;;14.90;;
18259;SDS011;9256;52.236;5.712;2023-12-07T14:04:37;55.77;;;13.67;;
18259;SDS011;9256;52.236;5.712;2023-12-07T14:07:08;52.33;;;13.77;;
18259;SDS011;9256;52.236;5.712;2023-12-07T14:09:36;56.93;;;14.57;;
18259;SDS011;9256;52.236;5.712;2023-12-07T14:12:03;59.93;;;14.73;;
18259;SDS011;9256;52.236;5.712;2023-12-07T14:14:31;50.53;;;13.63;;
18259;SDS011;9256;52.236;5.712;2023-12-07T14:16:58;53.33;;;14.33;;
18259;SDS011;9256;52.236;5.712;2023-12-07T14:19:26;58.10;;;14.03;;
18259;SDS011;9256;52.236;5.712;2023-12-07T14:21:53;56.30;;;14.37;;
18259;SDS011;9256;52.236;5.712;2023-12-07T14:24:21;54.03;;;14.47;;
18259;SDS011;9256;52.236;5.712;2023-12-07T14:26:51;58.60;;;15.90;;
18259;SDS011;9256;52.236;5.712;2023-12-07T14:29:22;63.43;;;16.03;;
18259;SDS011;9256;52.236;5.712;2023-12-07T14:31:51;69.13;;;17.00;;
18259;SDS011;9256;52.236;5.712;2023-12-07T14:34:20;56.03;;;15.40;;
18259;SDS011;9256;52.236;5.712;2023-12-07T14:36:49;61.17;;;15.47;;
18259;SDS011;9256;52.236;5.712;2023-12-07T14:39:15;56.90;;;14.73;;
18259;SDS011;9256;52.236;5.712;2023-12-07T14:41:43;62.57;;;14.57;;
18259;SDS011;9256;52.236;5.712;2023-12-07T14:44:12;62.67;;;15.33;;
18259;SDS011;9256;52.236;5.712;2023-12-07T14:46:40;54.37;;;14.43;;